Time;durP1;ratioP1;P1;durP2;ratioP2;P2;SDS_P1;SDS_P2;PMS_P1;PMS_P2;Temp;Humidity;BMP_temperature;BMP_pressure;BME280_temperature;BME280_humidity;BME280_pressure;Samples;Min_cycle;Max_cycle;Signal;HPM_P1;HPM_P2
2024/01/11 00:01:12;;;;;;;5.85;1.80;;;;;;;;;;5048380;28;20043;-81
2024/01/11 00:03:41;;;;;;;6.20;1.80;;;;;;;;;;5033826;28;20032;-82
2024/01/11 00:06:08;;;;;;;5.53;1.73;;;;;;;;;;5049492;28;20074;-83
2024/01/11 00:08:35;;;;;;;4.93;1.80;;;;;;;;;;5051459;28;20052;-84
2024/01/11 00:11:03;;;;;;;6.03;1.73;;;;;;;;;;5047390;28;20544;-82
2024/01/11 00:13:30;;;;;;;4.78;1.60;;;;;;;;;;5051076;28;20924;-81
2024/01/11 00:15:56;;;;;;;4.50;1.58;;;;;;;;;;5052821;28;20055;-84
2024/01/11 00:18:22;;;;;;;5.40;1.88;;;;;;;;;;5050056;28;20044;-82
2024/01/11 00:20:49;;;;;;;5.13;1.90;;;;;;;;;;5053150;28;20020;-82
2024/01/11 00:23:15;;;;;;;7.68;3.45;;;;;;;;;;5047724;28;20033;-82
2024/01/11 00:25:42;;;;;;;8.18;4.43;;;;;;;;;;5050168;28;20032;-82
2024/01/11 00:28:09;;;;;;;7.63;2.90;;;;;;;;;;5050643;28;20261;-82
2024/01/11 00:30:35;;;;;;;5.97;2.30;;;;;;;;;;5059601;28;20040;-81
2024/01/11 00:33:06;;;;;;;6.38;2.40;;;;;;;;;;5053540;28;20040;-82
2024/01/11 00:35:33;;;;;;;6.38;2.00;;;;;;;;;;5071131;28;20079;-82
2024/01/11 00:38:01;;;;;;;6.95;2.20;;;;;;;;;;5050001;28;20028;-83
2024/01/11 00:40:29;;;;;;;5.38;1.85;;;;;;;;;;5058775;28;20024;-83
2024/01/11 00:42:57;;;;;;;5.57;1.60;;;;;;;;;;5072166;28;20102;-83
2024/01/11 00:45:24;;;;;;;5.20;1.45;;;;;;;;;;5072375;28;20081;-83
2024/01/11 00:47:51;;;;;;;4.53;1.58;;;;;;;;;;5050229;28;20039;-83
2024/01/11 00:50:20;;;;;;;6.88;1.58;;;;;;;;;;5070443;28;20028;-82
2024/01/11 00:52:48;;;;;;;3.95;1.33;;;;;;;;;;5052423;28;20130;-82
2024/01/11 00:55:16;;;;;;;4.97;1.48;;;;;;;;;;5062214;28;20099;-83
2024/01/11 00:57:42;;;;;;;6.55;1.90;;;;;;;;;;5053869;28;20085;-82
2024/01/11 01:00:08;;;;;;;4.63;1.70;;;;;;;;;;5069451;28;20028;-83
2024/01/11 01:02:35;;;;;;;;;;;;;;;;;;5071318;28;20032;-83
2024/01/11 01:05:04;;;;;;;5.05;1.92;;;;;;;;;;5051604;28;19920;-83
2024/01/11 01:07:32;;;;;;;7.72;2.38;;;;;;;;;;5070866;28;20055;-82
2024/01/11 01:10:00;;;;;;;6.20;2.00;;;;;;;;;;5051410;28;20570;-83
2024/01/11 01:12:28;;;;;;;4.68;1.70;;;;;;;;;;5070062;28;20044;-83
2024/01/11 01:14:57;;;;;;;5.53;1.80;;;;;;;;;;5065891;28;20578;-83
2024/01/11 01:17:25;;;;;;;5.90;2.00;;;;;;;;;;5053395;28;20823;-83
2024/01/11 01:19:52;;;;;;;6.18;2.58;;;;;;;;;;5055426;28;20070;-83
2024/01/11 01:22:21;;;;;;;7.03;2.10;;;;;;;;;;5050215;28;20403;-82
2024/01/11 01:24:49;;;;;;;6.60;2.30;;;;;;;;;;5052436;28;20101;-82
2024/01/11 01:27:18;;;;;;;7.40;2.70;;;;;;;;;;5064115;28;20043;-82
2024/01/11 01:29:45;;;;;;;7.57;2.90;;;;;;;;;;5054817;28;20047;-82
2024/01/11 01:32:12;;;;;;;7.65;2.53;;;;;;;;;;5061809;28;20148;-82
2024/01/11 01:34:39;;;;;;;7.38;2.78;;;;;;;;;;5068281;28;20031;-81
2024/01/11 01:37:06;;;;;;;7.25;2.30;;;;;;;;;;5046891;28;20402;-82
2024/01/11 01:39:32;;;;;;;7.18;2.53;;;;;;;;;;5050496;28;20283;-81
2024/01/11 01:41:59;;;;;;;;;;;;;;;;;;5069591;28;20043;-82
2024/01/11 01:44:27;;;;;;;7.88;2.92;;;;;;;;;;5053873;28;19914;-81
2024/01/11 01:46:53;;;;;;;7.15;2.42;;;;;;;;;;5053484;28;20028;-82
2024/01/11 01:49:22;;;;;;;7.20;2.80;;;;;;;;;;5065459;28;20035;-81
2024/01/11 01:51:52;;;;;;;7.88;3.00;;;;;;;;;;5053753;28;20036;-82
2024/01/11 01:54:21;;;;;;;8.05;3.40;;;;;;;;;;5068057;28;20103;-82
2024/01/11 01:56:50;;;;;;;8.50;3.33;;;;;;;;;;5052343;28;20039;-82
2024/01/11 01:59:21;;;;;;;8.40;3.30;;;;;;;;;;5067184;28;20039;-82
2024/01/11 02:01:50;;;;;;;7.00;2.67;;;;;;;;;;5071013;28;20081;-81
2024/01/11 02:04:17;;;;;;;8.55;3.00;;;;;;;;;;5068871;28;20043;-83
2024/01/11 02:06:45;;;;;;;7.40;3.08;;;;;;;;;;5054209;28;20085;-83
2024/01/11 02:09:14;;;;;;;9.05;2.90;;;;;;;;;;5036900;28;20071;-81
2024/01/11 02:11:42;;;;;;;8.23;3.45;;;;;;;;;;5070811;28;20009;-81
2024/01/11 02:14:10;;;;;;;8.70;3.47;;;;;;;;;;5051807;28;20028;-81
2024/01/11 02:16:37;;;;;;;7.57;2.88;;;;;;;;;;5054862;28;20566;-83
2024/01/11 02:19:03;;;;;;;;;;;;;;;;;;5068999;28;20020;-83
2024/01/11 02:21:34;;;;;;;7.55;3.20;;;;;;;;;;5055419;28;20412;-83
2024/01/11 02:24:06;;;;;;;8.98;3.00;;;;;;;;;;5071303;28;20038;-83
2024/01/11 02:26:32;;;;;;;7.80;2.80;;;;;;;;;;5073944;28;20032;-83
2024/01/11 02:28:58;;;;;;;7.45;2.88;;;;;;;;;;5070084;28;20476;-83
2024/01/11 02:31:27;;;;;;;8.05;2.53;;;;;;;;;;5073245;28;20052;-82
2024/01/11 02:33:55;;;;;;;7.05;2.33;;;;;;;;;;5055079;28;20483;-82
2024/01/11 02:36:26;;;;;;;6.97;2.50;;;;;;;;;;5068737;28;20496;-82
2024/01/11 02:38:54;;;;;;;6.50;2.33;;;;;;;;;;5070257;28;20043;-82
2024/01/11 02:41:21;;;;;;;6.47;2.55;;;;;;;;;;5052218;28;20077;-82
2024/01/11 02:43:48;;;;;;;6.97;2.67;;;;;;;;;;5038255;28;20089;-82
2024/01/11 02:46:17;;;;;;;9.48;3.60;;;;;;;;;;5070732;28;20056;-82
2024/01/11 02:48:45;;;;;;;6.28;2.50;;;;;;;;;;5069298;28;20495;-82
2024/01/11 02:51:13;;;;;;;6.35;2.53;;;;;;;;;;5069032;28;20025;-82
2024/01/11 02:53:42;;;;;;;6.90;2.40;;;;;;;;;;5054482;28;20027;-83
2024/01/11 02:56:09;;;;;;;7.47;2.60;;;;;;;;;;5051724;28;20392;-81
2024/01/11 02:58:36;;;;;;;6.90;2.38;;;;;;;;;;5072179;28;20039;-82
2024/01/11 03:01:03;;;;;;;7.15;2.83;;;;;;;;;;5052865;28;20028;-82
2024/01/11 03:03:32;;;;;;;6.30;2.72;;;;;;;;;;5056632;28;20104;-83
2024/01/11 03:05:58;;;;;;;7.85;3.00;;;;;;;;;;5066757;28;20025;-84
2024/01/11 03:08:27;;;;;;;7.63;2.90;;;;;;;;;;5068851;28;20048;-81
2024/01/11 03:10:54;;;;;;;7.60;2.88;;;;;;;;;;5068230;28;20383;-81
2024/01/11 03:13:21;;;;;;;7.15;3.00;;;;;;;;;;5066147;28;20032;-84
2024/01/11 03:15:50;;;;;;;10.40;3.90;;;;;;;;;;5054881;28;20024;-81
2024/01/11 03:18:18;;;;;;;9.65;3.60;;;;;;;;;;5068639;28;20039;-84
2024/01/11 03:20:45;;;;;;;9.02;3.60;;;;;;;;;;5071217;28;20030;-84
2024/01/11 03:23:11;;;;;;;9.63;3.67;;;;;;;;;;5068316;28;20481;-83
2024/01/11 03:25:40;;;;;;;10.82;3.60;;;;;;;;;;5071169;28;20024;-81
2024/01/11 03:28:08;;;;;;;8.93;3.38;;;;;;;;;;5072682;28;20039;-84
2024/01/11 03:30:35;;;;;;;8.35;3.15;;;;;;;;;;5074812;28;20040;-84
2024/01/11 03:33:03;;;;;;;8.60;3.22;;;;;;;;;;5054355;28;20032;-84
2024/01/11 03:35:30;;;;;;;8.93;3.10;;;;;;;;;;5076879;28;20070;-83
2024/01/11 03:37:59;;;;;;;7.93;2.95;;;;;;;;;;5057325;28;20032;-83
2024/01/11 03:40:27;;;;;;;8.68;3.05;;;;;;;;;;5058124;28;20028;-83
2024/01/11 03:42:54;;;;;;;7.88;2.80;;;;;;;;;;5076310;28;20563;-84
2024/01/11 03:45:21;;;;;;;7.40;2.60;;;;;;;;;;5074469;28;20027;-84
2024/01/11 03:47:50;;;;;;;6.47;2.25;;;;;;;;;;5052649;28;20024;-82
2024/01/11 03:50:19;;;;;;;7.10;2.30;;;;;;;;;;5051233;28;23623;-82
2024/01/11 03:52:48;;;;;;;6.10;2.00;;;;;;;;;;5047477;28;20036;-83
2024/01/11 03:55:15;;;;;;;6.70;2.10;;;;;;;;;;5069088;28;20111;-84
2024/01/11 03:57:44;;;;;;;7.28;2.70;;;;;;;;;;5069177;28;20174;-82
2024/01/11 04:00:11;;;;;;;6.15;2.20;;;;;;;;;;5071822;28;20571;-83
2024/01/11 04:02:39;;;;;;;6.85;2.28;;;;;;;;;;5056216;28;20071;-82
2024/01/11 04:05:06;;;;;;;7.28;2.53;;;;;;;;;;5056417;28;20636;-82
2024/01/11 04:07:34;;;;;;;7.07;2.40;;;;;;;;;;5073194;28;20044;-82
2024/01/11 04:10:01;;;;;;;6.95;2.38;;;;;;;;;;5064440;28;20099;-83
2024/01/11 04:12:30;;;;;;;8.00;2.50;;;;;;;;;;5075529;28;20062;-84
2024/01/11 04:14:57;;;;;;;7.00;2.47;;;;;;;;;;5057461;28;20043;-82
2024/01/11 04:17:25;;;;;;;7.10;2.45;;;;;;;;;;5057048;28;20056;-84
2024/01/11 04:19:51;;;;;;;5.72;2.00;;;;;;;;;;5057443;28;20024;-82
2024/01/11 04:22:19;;;;;;;5.95;1.90;;;;;;;;;;5070690;28;20475;-82
2024/01/11 04:24:45;;;;;;;7.78;1.98;;;;;;;;;;5074588;28;20028;-82
2024/01/11 04:27:13;;;;;;;5.85;1.77;;;;;;;;;;5065759;28;20044;-82
2024/01/11 04:29:41;;;;;;;5.93;1.90;;;;;;;;;;5073575;28;20032;-83
2024/01/11 04:32:08;;;;;;;5.55;1.80;;;;;;;;;;5068533;28;20043;-83
2024/01/11 04:34:36;;;;;;;5.32;1.90;;;;;;;;;;5071563;28;20035;-82
2024/01/11 04:37:04;;;;;;;4.72;1.75;;;;;;;;;;5050405;28;20038;-82
2024/01/11 04:39:30;;;;;;;5.50;2.00;;;;;;;;;;5052247;28;20028;-82
2024/01/11 04:41:58;;;;;;;5.95;1.80;;;;;;;;;;5053275;28;20073;-82
2024/01/11 04:44:25;;;;;;;6.03;1.90;;;;;;;;;;5053153;28;20490;-82
2024/01/11 04:46:53;;;;;;;5.22;1.80;;;;;;;;;;5053302;28;20485;-82
2024/01/11 04:49:21;;;;;;;6.13;2.25;;;;;;;;;;5067796;28;20020;-83
2024/01/11 04:51:50;;;;;;;6.20;2.20;;;;;;;;;;5069348;28;20070;-81
2024/01/11 04:54:18;;;;;;;6.70;2.05;;;;;;;;;;5069302;28;20154;-82
2024/01/11 04:56:45;;;;;;;7.25;2.10;;;;;;;;;;5054405;28;20039;-82
2024/01/11 04:59:11;;;;;;;6.30;2.10;;;;;;;;;;5067742;28;20051;-82
2024/01/11 05:01:39;;;;;;;6.82;2.00;;;;;;;;;;5071065;28;20035;-84
2024/01/11 05:04:07;;;;;;;5.43;1.92;;;;;;;;;;5051180;28;20064;-81
2024/01/11 05:06:34;;;;;;;6.28;2.20;;;;;;;;;;5051606;28;20036;-81
2024/01/11 05:09:02;;;;;;;6.90;1.73;;;;;;;;;;5050997;28;20085;-82
2024/01/11 05:11:32;;;;;;;5.63;1.65;;;;;;;;;;5069408;28;20031;-81
2024/01/11 05:13:58;;;;;;;6.68;1.77;;;;;;;;;;5049535;28;20169;-82
2024/01/11 05:16:28;;;;;;;4.82;1.40;;;;;;;;;;5061879;28;20201;-82
2024/01/11 05:18:59;;;;;;;4.30;1.50;;;;;;;;;;5052459;28;20028;-81
2024/01/11 05:21:28;;;;;;;7.72;1.65;;;;;;;;;;5068603;28;20035;-83
2024/01/11 05:23:54;;;;;;;3.80;1.10;;;;;;;;;;5066134;28;20033;-82
2024/01/11 05:26:21;;;;;;;4.38;1.40;;;;;;;;;;5064552;28;21033;-83
2024/01/11 05:28:49;;;;;;;4.53;1.30;;;;;;;;;;5066944;28;20032;-82
2024/01/11 05:31:18;;;;;;;3.80;1.35;;;;;;;;;;5061158;28;20028;-82
2024/01/11 05:33:44;;;;;;;3.88;1.20;;;;;;;;;;5048250;28;20035;-82
2024/01/11 05:36:10;;;;;;;5.28;1.20;;;;;;;;;;5050277;28;20028;-82
2024/01/11 05:38:39;;;;;;;5.13;1.40;;;;;;;;;;5069606;28;20118;-82
2024/01/11 05:41:05;;;;;;;5.72;1.38;;;;;;;;;;5049050;28;20130;-82
2024/01/11 05:43:32;;;;;;;4.35;1.38;;;;;;;;;;5043997;28;20028;-83
2024/01/11 05:45:59;;;;;;;3.85;1.42;;;;;;;;;;5065142;28;20047;-82
2024/01/11 05:48:27;;;;;;;5.55;1.67;;;;;;;;;;5051359;28;20024;-82
2024/01/11 05:50:54;;;;;;;5.50;1.85;;;;;;;;;;5066361;28;20028;-82
2024/01/11 05:53:22;;;;;;;6.85;1.90;;;;;;;;;;5067968;28;20051;-82
2024/01/11 05:55:49;;;;;;;7.93;1.65;;;;;;;;;;5068027;28;20028;-82
2024/01/11 05:58:17;;;;;;;4.88;1.50;;;;;;;;;;5064340;28;20028;-83
2024/01/11 06:00:43;;;;;;;4.25;1.30;;;;;;;;;;5067408;28;20028;-82
2024/01/11 06:03:15;;;;;;;4.70;1.40;;;;;;;;;;5067470;28;20716;-83
2024/01/11 06:05:42;;;;;;;6.32;1.85;;;;;;;;;;5050905;28;20150;-83
2024/01/11 06:08:08;;;;;;;5.80;2.10;;;;;;;;;;5068895;28;20052;-83
2024/01/11 06:10:36;;;;;;;5.38;2.08;;;;;;;;;;5072587;28;20077;-84
2024/01/11 06:13:03;;;;;;;6.05;2.20;;;;;;;;;;5049134;28;20054;-83
2024/01/11 06:15:30;;;;;;;5.53;1.65;;;;;;;;;;5049927;28;20032;-82
2024/01/11 06:17:58;;;;;;;8.65;3.03;;;;;;;;;;5050470;28;20086;-83
2024/01/11 06:20:25;;;;;;;6.85;2.60;;;;;;;;;;5054804;28;20028;-83
2024/01/11 06:22:53;;;;;;;6.57;2.42;;;;;;;;;;5075570;28;20020;-83
2024/01/11 06:25:20;;;;;;;6.43;2.22;;;;;;;;;;5074633;28;20045;-83
2024/01/11 06:27:48;;;;;;;8.20;2.15;;;;;;;;;;5067854;28;20032;-83
2024/01/11 06:30:14;;;;;;;6.80;2.25;;;;;;;;;;5080880;28;20092;-83
2024/01/11 06:32:42;;;;;;;6.65;2.30;;;;;;;;;;5063271;28;20020;-83
2024/01/11 06:35:10;;;;;;;5.22;2.17;;;;;;;;;;5055526;28;20122;-83
2024/01/11 06:37:37;;;;;;;5.78;2.17;;;;;;;;;;5070925;28;20024;-82
2024/01/11 06:40:07;;;;;;;5.90;2.00;;;;;;;;;;5062824;28;20501;-82
2024/01/11 06:42:35;;;;;;;5.53;2.00;;;;;;;;;;5071697;28;20113;-81
2024/01/11 06:45:03;;;;;;;5.55;1.98;;;;;;;;;;5052766;28;20040;-81
2024/01/11 06:47:31;;;;;;;6.70;2.53;;;;;;;;;;5053382;28;20040;-83
2024/01/11 06:49:59;;;;;;;7.93;3.72;;;;;;;;;;5071363;28;20116;-82
2024/01/11 06:52:27;;;;;;;8.63;3.97;;;;;;;;;;5047738;28;20028;-83
2024/01/11 06:54:54;;;;;;;10.88;5.03;;;;;;;;;;5065981;28;20066;-83
2024/01/11 06:57:21;;;;;;;9.27;5.43;;;;;;;;;;5065027;28;20031;-83
2024/01/11 06:59:50;;;;;;;8.23;4.45;;;;;;;;;;5051053;28;20025;-83
2024/01/11 07:02:17;;;;;;;9.18;4.32;;;;;;;;;;5065809;28;20038;-83
2024/01/11 07:04:45;;;;;;;8.65;4.10;;;;;;;;;;5054938;28;20524;-83
2024/01/11 07:07:14;;;;;;;7.70;3.03;;;;;;;;;;5046316;28;20032;-84
2024/01/11 07:09:41;;;;;;;7.22;2.75;;;;;;;;;;5049537;28;20027;-85
2024/01/11 07:12:07;;;;;;;6.25;2.60;;;;;;;;;;5063619;28;20040;-83
2024/01/11 07:14:36;;;;;;;6.85;2.72;;;;;;;;;;5050288;28;20035;-83
2024/01/11 07:17:03;;;;;;;6.90;2.70;;;;;;;;;;5066912;28;20032;-84
2024/01/11 07:19:31;;;;;;;7.30;2.67;;;;;;;;;;5066309;28;20644;-83
2024/01/11 07:22:00;;;;;;;9.18;3.05;;;;;;;;;;5049780;28;20115;-82
2024/01/11 07:24:26;;;;;;;9.73;3.13;;;;;;;;;;5065383;28;20036;-82
2024/01/11 07:26:55;;;;;;;11.45;3.20;;;;;;;;;;5047439;28;20056;-82
2024/01/11 07:29:22;;;;;;;9.80;3.20;;;;;;;;;;5041126;28;20025;-82
2024/01/11 07:31:50;;;;;;;6.68;2.95;;;;;;;;;;5047298;28;20139;-83
2024/01/11 07:34:19;;;;;;;7.00;2.55;;;;;;;;;;5045723;28;20024;-83
2024/01/11 07:36:45;;;;;;;8.18;3.22;;;;;;;;;;5050545;28;20040;-84
2024/01/11 07:39:11;;;;;;;13.45;5.40;;;;;;;;;;5045522;28;20610;-84
2024/01/11 07:41:39;;;;;;;13.25;4.05;;;;;;;;;;5043122;28;20028;-84
2024/01/11 07:44:07;;;;;;;9.75;4.30;;;;;;;;;;5046039;28;20677;-83
2024/01/11 07:46:34;;;;;;;10.30;4.88;;;;;;;;;;5049624;28;20035;-83
2024/01/11 07:49:01;;;;;;;14.43;8.15;;;;;;;;;;5045887;28;20039;-82
2024/01/11 07:51:28;;;;;;;14.48;8.38;;;;;;;;;;5054457;28;20040;-82
2024/01/11 07:53:55;;;;;;;13.75;7.63;;;;;;;;;;5048406;28;20032;-83
2024/01/11 07:56:22;;;;;;;14.80;8.40;;;;;;;;;;5043730;28;20040;-83
2024/01/11 07:58:49;;;;;;;;;;;;;;;;;;5044589;28;20124;-82
2024/01/11 08:01:16;;;;;;;21.83;13.75;;;;;;;;;;5040546;28;19943;-83
2024/01/11 08:03:45;;;;;;;17.65;11.00;;;;;;;;;;5045780;28;20060;-82
2024/01/11 08:06:13;;;;;;;14.27;8.15;;;;;;;;;;5045620;28;20627;-83
2024/01/11 08:08:41;;;;;;;10.23;5.20;;;;;;;;;;5049627;28;20035;-82
2024/01/11 08:11:12;;;;;;;10.00;4.07;;;;;;;;;;5048892;28;20064;-83
2024/01/11 08:13:40;;;;;;;11.88;4.82;;;;;;;;;;5048380;28;20060;-83
2024/01/11 08:16:09;;;;;;;13.95;4.22;;;;;;;;;;5048358;28;20032;-83
2024/01/11 08:18:36;;;;;;;12.50;4.30;;;;;;;;;;5052135;28;20809;-83
2024/01/11 08:21:09;;;;;;;12.13;4.40;;;;;;;;;;5050039;28;20070;-83
2024/01/11 08:23:48;;;;;;;10.68;4.18;;;;;;;;;;5051326;28;20032;-83
2024/01/11 08:26:15;;;;;;;9.45;4.13;;;;;;;;;;5055887;28;20125;-82
2024/01/11 08:28:44;;;;;;;12.50;3.90;;;;;;;;;;5066314;28;20810;-83
2024/01/11 08:31:12;;;;;;;10.70;4.18;;;;;;;;;;5050552;28;20469;-82
2024/01/11 08:33:40;;;;;;;15.82;4.75;;;;;;;;;;5069259;28;20442;-82
2024/01/11 08:36:08;;;;;;;11.50;4.97;;;;;;;;;;5046423;28;20116;-82
2024/01/11 08:38:36;;;;;;;9.85;4.82;;;;;;;;;;5067000;28;20036;-83
2024/01/11 08:41:03;;;;;;;9.93;4.40;;;;;;;;;;5066089;28;20035;-82
2024/01/11 08:43:31;;;;;;;7.55;3.40;;;;;;;;;;5068254;28;20471;-82
2024/01/11 08:45:58;;;;;;;8.55;3.58;;;;;;;;;;5066124;28;20028;-82
2024/01/11 08:48:26;;;;;;;7.50;3.10;;;;;;;;;;5066824;28;20032;-82
2024/01/11 08:50:54;;;;;;;6.07;2.40;;;;;;;;;;5036046;28;20028;-82
2024/01/11 08:53:21;;;;;;;8.23;2.45;;;;;;;;;;5065421;28;20043;-82
2024/01/11 08:55:49;;;;;;;7.35;2.47;;;;;;;;;;5072859;28;20522;-82
2024/01/11 08:58:15;;;;;;;7.10;2.55;;;;;;;;;;5050361;28;20103;-82
2024/01/11 09:00:43;;;;;;;7.32;2.17;;;;;;;;;;5066406;28;20024;-82
2024/01/11 09:03:13;;;;;;;8.70;2.88;;;;;;;;;;5051268;28;20036;-82
2024/01/11 09:05:42;;;;;;;8.60;3.53;;;;;;;;;;5073668;28;20024;-82
2024/01/11 09:08:09;;;;;;;7.45;3.00;;;;;;;;;;5047620;28;20028;-81
2024/01/11 09:10:36;;;;;;;11.05;3.20;;;;;;;;;;5056418;28;20035;-81
2024/01/11 09:13:03;;;;;;;7.68;3.28;;;;;;;;;;5047227;28;20778;-81
2024/01/11 09:15:30;;;;;;;7.68;2.80;;;;;;;;;;5064564;28;20582;-82
2024/01/11 09:17:57;;;;;;;7.43;2.80;;;;;;;;;;5068639;28;20458;-82
2024/01/11 09:20:26;;;;;;;6.80;2.65;;;;;;;;;;5052624;28;20763;-82
2024/01/11 09:22:53;;;;;;;5.90;1.88;;;;;;;;;;5049684;28;20108;-82
2024/01/11 09:25:21;;;;;;;6.47;2.42;;;;;;;;;;5050184;28;20047;-82
2024/01/11 09:27:49;;;;;;;6.82;2.75;;;;;;;;;;5047572;28;20049;-81
2024/01/11 09:30:17;;;;;;;6.47;2.65;;;;;;;;;;5067020;28;20066;-82
2024/01/11 09:32:43;;;;;;;6.32;2.55;;;;;;;;;;5049650;28;20566;-81
2024/01/11 09:35:11;;;;;;;7.63;2.40;;;;;;;;;;5050468;28;20039;-81
2024/01/11 09:37:39;;;;;;;6.85;2.38;;;;;;;;;;5063100;28;20035;-82
2024/01/11 09:40:10;;;;;;;7.63;2.30;;;;;;;;;;5068787;28;21885;-82
2024/01/11 09:42:41;;;;;;;6.93;2.58;;;;;;;;;;5055930;28;20039;-83
2024/01/11 09:45:12;;;;;;;7.72;2.58;;;;;;;;;;5051774;28;20032;-83
2024/01/11 09:47:40;;;;;;;14.00;3.65;;;;;;;;;;5068275;28;20031;-82
2024/01/11 09:50:10;;;;;;;14.48;3.75;;;;;;;;;;5048548;28;20552;-83
2024/01/11 09:52:38;;;;;;;13.60;3.92;;;;;;;;;;5068442;28;20029;-82
2024/01/11 09:55:07;;;;;;;10.68;3.15;;;;;;;;;;5066820;28;20123;-82
2024/01/11 09:57:36;;;;;;;12.98;3.33;;;;;;;;;;5065966;28;20831;-83
2024/01/11 10:00:07;;;;;;;8.48;3.03;;;;;;;;;;5066012;28;20150;-82
2024/01/11 10:02:34;;;;;;;11.07;3.60;;;;;;;;;;5052933;28;20674;-82
2024/01/11 10:05:03;;;;;;;10.07;3.72;;;;;;;;;;5064739;28;20027;-82
2024/01/11 10:07:32;;;;;;;11.65;3.95;;;;;;;;;;5067994;28;20032;-82
2024/01/11 10:10:03;;;;;;;13.50;4.53;;;;;;;;;;5049170;28;20024;-82
2024/01/11 10:12:30;;;;;;;12.55;4.30;;;;;;;;;;5066079;28;21772;-83
2024/01/11 10:15:06;;;;;;;13.93;4.15;;;;;;;;;;5064750;28;20028;-82
2024/01/11 10:17:32;;;;;;;9.13;3.28;;;;;;;;;;5047115;28;20127;-74
2024/01/11 10:19:59;;;;;;;10.15;3.25;;;;;;;;;;5043818;28;20047;-74
2024/01/11 10:22:29;;;;;;;8.25;3.40;;;;;;;;;;5064374;28;20142;-81
2024/01/11 10:25:28;;;;;;;9.48;3.85;;;;;;;;;;5066899;28;20027;-83
2024/01/11 10:27:59;;;;;;;10.27;4.78;;;;;;;;;;5007082;28;21567;-81
2024/01/11 10:30:28;;;;;;;15.93;9.68;;;;;;;;;;5006703;28;20060;-81
2024/01/11 10:32:59;;;;;;;15.63;8.43;;;;;;;;;;4989373;28;20033;-81
2024/01/11 10:35:26;;;;;;;20.38;11.95;;;;;;;;;;5005788;28;20133;-82
2024/01/11 10:37:54;;;;;;;17.88;10.18;;;;;;;;;;5011289;28;20815;-82
2024/01/11 10:40:25;;;;;;;13.75;7.20;;;;;;;;;;5004187;28;20152;-82
2024/01/11 10:42:52;;;;;;;14.85;7.65;;;;;;;;;;5004514;28;20083;-82
2024/01/11 10:45:21;;;;;;;12.90;6.47;;;;;;;;;;5003803;28;20083;-83
2024/01/11 10:47:58;;;;;;;9.80;4.43;;;;;;;;;;5006150;28;20029;-82
2024/01/11 10:50:26;;;;;;;8.48;3.60;;;;;;;;;;5008262;28;20081;-84
2024/01/11 10:53:08;;;;;;;7.93;2.60;;;;;;;;;;5006830;28;20040;-83
2024/01/11 10:55:37;;;;;;;6.15;2.00;;;;;;;;;;5003903;28;20037;-74
2024/01/11 10:58:04;;;;;;;5.75;1.77;;;;;;;;;;4987781;28;20115;-74
2024/01/11 11:00:32;;;;;;;5.90;2.08;;;;;;;;;;4988359;28;20030;-76
2024/01/11 11:03:04;;;;;;;5.95;2.10;;;;;;;;;;5014276;28;20032;-74
2024/01/11 11:05:30;;;;;;;6.32;2.30;;;;;;;;;;5045951;28;20032;-74
2024/01/11 11:07:58;;;;;;;;;;;;;;;;;;5046209;28;20048;-75
2024/01/11 11:10:26;;;;;;;;;;;;;;;;;;5046283;28;19923;-77
2024/01/11 11:12:59;;;;;;;7.43;2.38;;;;;;;;;;5047854;28;20019;-77
2024/01/11 11:15:30;;;;;;;7.32;2.88;;;;;;;;;;5041095;28;20032;-76
2024/01/11 11:17:57;;;;;;;10.98;4.40;;;;;;;;;;5032842;28;20036;-75
2024/01/11 11:20:25;;;;;;;9.63;5.13;;;;;;;;;;5048521;28;20029;-75
2024/01/11 11:23:05;;;;;;;10.45;4.60;;;;;;;;;;5046237;28;20059;-75
2024/01/11 11:25:32;;;;;;;10.50;4.07;;;;;;;;;;5052743;28;20052;-78
2024/01/11 11:28:04;;;;;;;8.20;3.92;;;;;;;;;;5064026;28;20037;-77
2024/01/11 11:30:32;;;;;;;9.25;3.80;;;;;;;;;;5044916;28;20847;-76
2024/01/11 11:33:20;;;;;;;8.20;3.75;;;;;;;;;;5048268;28;20036;-77
2024/01/11 11:35:48;;;;;;;9.57;4.22;;;;;;;;;;5067033;28;20679;-76
2024/01/11 11:38:23;;;;;;;8.75;3.45;;;;;;;;;;5045315;28;20060;-77
2024/01/11 11:40:53;;;;;;;9.15;3.95;;;;;;;;;;5064157;28;20028;-76
2024/01/11 11:43:21;;;;;;;8.23;3.70;;;;;;;;;;5063371;28;20084;-77
2024/01/11 11:45:51;;;;;;;10.57;3.72;;;;;;;;;;5056828;28;20119;-76
2024/01/11 11:48:39;;;;;;;9.25;3.10;;;;;;;;;;5056312;28;20048;-77
2024/01/11 11:51:13;;;;;;;7.95;2.97;;;;;;;;;;5054299;28;20858;-77
2024/01/11 11:53:41;;;;;;;6.97;2.47;;;;;;;;;;5070910;28;20256;-76
2024/01/11 11:56:14;;;;;;;9.27;2.67;;;;;;;;;;5069877;28;20401;-76
2024/01/11 11:58:43;;;;;;;7.03;2.63;;;;;;;;;;5070959;28;20058;-77
2024/01/11 12:01:11;;;;;;;9.57;4.13;;;;;;;;;;5054315;28;20028;-76
2024/01/11 12:03:51;;;;;;;8.45;3.38;;;;;;;;;;5056011;28;20032;-76
2024/01/11 12:06:19;;;;;;;9.70;3.40;;;;;;;;;;5052619;28;22003;-76
2024/01/11 12:08:46;;;;;;;9.32;3.60;;;;;;;;;;5056338;28;20032;-77
2024/01/11 12:11:22;;;;;;;8.73;2.60;;;;;;;;;;5070334;28;20064;-79
2024/01/11 12:13:50;;;;;;;8.75;3.83;;;;;;;;;;5072958;28;20028;-77
2024/01/11 12:16:16;;;;;;;12.05;4.88;;;;;;;;;;5051765;28;20055;-77
2024/01/11 12:18:45;;;;;;;10.93;6.07;;;;;;;;;;5055153;28;20637;-77
2024/01/11 12:21:12;;;;;;;14.88;7.68;;;;;;;;;;5072694;28;20024;-76
2024/01/11 12:23:41;;;;;;;14.23;7.90;;;;;;;;;;5072151;28;20093;-78
2024/01/11 12:26:12;;;;;;;12.43;6.05;;;;;;;;;;5049731;28;20064;-75
2024/01/11 12:28:41;;;;;;;11.43;6.22;;;;;;;;;;5051464;28;20037;-76
2024/01/11 12:31:09;;;;;;;10.15;5.07;;;;;;;;;;5045945;28;20040;-76
2024/01/11 12:33:38;;;;;;;10.70;5.10;;;;;;;;;;5050999;28;20024;-76
2024/01/11 12:36:07;;;;;;;8.95;3.80;;;;;;;;;;5048816;28;20089;-76
2024/01/11 12:38:36;;;;;;;11.15;5.88;;;;;;;;;;5051236;28;20119;-76
2024/01/11 12:41:04;;;;;;;9.00;4.53;;;;;;;;;;5049681;28;20690;-77
2024/01/11 12:43:34;;;;;;;12.27;6.50;;;;;;;;;;5055105;28;20637;-77
2024/01/11 12:46:02;;;;;;;12.05;7.72;;;;;;;;;;5055047;28;20039;-76
2024/01/11 12:48:30;;;;;;;12.88;8.20;;;;;;;;;;5051089;28;20040;-82
2024/01/11 12:50:57;;;;;;;12.68;7.15;;;;;;;;;;5050563;28;20056;-82
2024/01/11 12:53:26;;;;;;;9.88;5.25;;;;;;;;;;5055226;28;20231;-83
2024/01/11 12:56:11;;;;;;;8.45;3.63;;;;;;;;;;5049330;28;20145;-82
2024/01/11 12:58:39;;;;;;;9.70;4.20;;;;;;;;;;5050829;28;20035;-81
2024/01/11 13:01:07;;;;;;;8.68;3.75;;;;;;;;;;5048894;28;20039;-81
2024/01/11 13:03:36;;;;;;;7.65;3.10;;;;;;;;;;5052031;28;20033;-82
2024/01/11 13:06:06;;;;;;;7.75;3.20;;;;;;;;;;5048611;28;20073;-82
2024/01/11 13:08:36;;;;;;;8.90;3.65;;;;;;;;;;5051328;28;20036;-83
2024/01/11 13:11:09;;;;;;;7.43;2.90;;;;;;;;;;5053229;28;20033;-82
2024/01/11 13:13:38;;;;;;;8.25;3.03;;;;;;;;;;5047066;28;20756;-83
2024/01/11 13:16:11;;;;;;;9.32;3.28;;;;;;;;;;5045603;28;20487;-82
2024/01/11 13:18:41;;;;;;;8.45;3.30;;;;;;;;;;5058200;28;20048;-82
2024/01/11 13:21:09;;;;;;;9.43;4.43;;;;;;;;;;5044575;28;20120;-82
2024/01/11 13:23:37;;;;;;;9.07;4.72;;;;;;;;;;5047485;28;20036;-82
2024/01/11 13:26:06;;;;;;;9.55;4.60;;;;;;;;;;5057530;28;20043;-82
2024/01/11 13:28:34;;;;;;;9.95;4.85;;;;;;;;;;5073114;28;20028;-82
2024/01/11 13:31:03;;;;;;;11.48;5.53;;;;;;;;;;5053947;28;20109;-82
2024/01/11 13:33:30;;;;;;;10.57;5.57;;;;;;;;;;5054847;28;20072;-84
2024/01/11 13:35:58;;;;;;;13.68;9.15;;;;;;;;;;5056759;28;20151;-83
2024/01/11 13:38:26;;;;;;;12.32;9.57;;;;;;;;;;5068752;28;20020;-83
2024/01/11 13:40:53;;;;;;;15.25;11.27;;;;;;;;;;5056671;28;20024;-83
2024/01/11 13:43:21;;;;;;;18.60;15.55;;;;;;;;;;5063543;28;20100;-83
2024/01/11 13:45:49;;;;;;;16.40;11.00;;;;;;;;;;5050515;28;20566;-83
2024/01/11 13:48:16;;;;;;;20.85;16.15;;;;;;;;;;5064673;28;20245;-83
2024/01/11 13:50:45;;;;;;;18.52;13.55;;;;;;;;;;5066697;28;20032;-82
2024/01/11 13:53:12;;;;;;;19.77;12.43;;;;;;;;;;5052751;28;20105;-81
2024/01/11 13:55:39;;;;;;;15.25;10.63;;;;;;;;;;5049916;28;20032;-83
2024/01/11 13:58:07;;;;;;;18.38;9.57;;;;;;;;;;5068462;28;20032;-82
2024/01/11 14:00:34;;;;;;;15.00;9.32;;;;;;;;;;5046495;28;20029;-82
2024/01/11 14:03:04;;;;;;;20.02;12.13;;;;;;;;;;5046775;28;20032;-82
2024/01/11 14:05:33;;;;;;;15.93;7.78;;;;;;;;;;5050552;28;20035;-81
2024/01/11 14:08:05;;;;;;;14.57;7.57;;;;;;;;;;5068091;28;20040;-82
2024/01/11 14:10:33;;;;;;;10.30;5.10;;;;;;;;;;5048568;28;20038;-82
2024/01/11 14:13:03;;;;;;;12.07;6.90;;;;;;;;;;5064060;28;20695;-82
2024/01/11 14:15:32;;;;;;;15.75;7.55;;;;;;;;;;5068302;28;20028;-82
2024/01/11 14:17:58;;;;;;;18.65;10.32;;;;;;;;;;5064990;28;20031;-81
2024/01/11 14:20:24;;;;;;;17.48;10.80;;;;;;;;;;5067684;28;20097;-81
2024/01/11 14:22:51;;;;;;;17.85;9.90;;;;;;;;;;5048991;28;20105;-81
2024/01/11 14:25:18;;;;;;;;;;;;;;;;;;5064704;28;20028;-80
2024/01/11 14:27:44;;;;;;;;;;;;;;;;;;5065074;28;19922;-81
2024/01/11 14:30:12;;;;;;;13.75;6.53;;;;;;;;;;5048328;28;19912;-81
2024/01/11 14:32:41;;;;;;;19.77;8.00;;;;;;;;;;5049627;28;20032;-81
2024/01/11 14:35:08;;;;;;;15.98;7.60;;;;;;;;;;5051286;28;20127;-80
2024/01/11 14:37:36;;;;;;;12.60;6.43;;;;;;;;;;5067627;28;20031;-80
2024/01/11 14:40:03;;;;;;;15.88;8.15;;;;;;;;;;5048528;28;20024;-80
2024/01/11 14:42:33;;;;;;;15.25;7.72;;;;;;;;;;5049634;28;20463;-81
2024/01/11 14:45:00;;;;;;;21.35;14.10;;;;;;;;;;5060729;28;20328;-80
2024/01/11 14:47:29;;;;;;;16.63;6.68;;;;;;;;;;5067314;28;20046;-79